Time;durP1;ratioP1;P1;durP2;ratioP2;P2;SDS_P1;SDS_P2;PMS_P1;PMS_P2;Temp;Humidity;BMP_temperature;BMP_pressure;BME280_temperature;BME280_humidity;BME280_pressure;Samples;Min_cycle;Max_cycle;Signal;HPM_P1;HPM_P2
2022/06/21 00:00:33;;;;;;;16.55;13.55;;;17.40;99.90;;;17.78;100.00;97938.16;5024063;27;130085;-76
2022/06/21 00:03:07;;;;;;;17.95;14.50;;;17.40;99.90;;;17.80;100.00;97940.50;5038038;27;121896;-75
2022/06/21 00:05:39;;;;;;;16.75;13.52;;;17.40;99.90;;;17.81;100.00;97939.31;5039148;27;122478;-74
2022/06/21 00:08:15;;;;;;;15.65;13.77;;;17.40;99.90;;;17.82;100.00;97938.13;5024062;27;128970;-74
2022/06/21 00:10:44;;;;;;;18.58;13.77;;;17.40;99.90;;;17.81;100.00;97936.59;5039227;27;130119;-75
2022/06/21 00:13:17;;;;;;;16.33;14.50;;;17.40;99.90;;;17.78;100.00;97931.91;5021394;27;120172;-75
2022/06/21 00:15:49;;;;;;;19.17;15.60;;;17.40;99.90;;;17.79;100.00;97936.19;5039392;27;119381;-73
2022/06/21 00:18:21;;;;;;;16.67;13.73;;;17.40;99.90;;;17.84;100.00;97935.00;5020514;27;129821;-73
2022/06/21 00:20:50;;;;;;;16.63;13.75;;;17.40;99.90;;;17.87;100.00;97926.75;5038825;27;129957;-73
2022/06/21 00:23:22;;;;;;;16.38;13.80;;;17.40;99.90;;;17.91;100.00;97930.28;5038894;27;119521;-76
2022/06/21 00:25:51;;;;;;;15.77;13.35;;;17.50;99.90;;;17.95;100.00;97922.81;5023239;27;119699;-74
2022/06/21 00:28:22;;;;;;;15.68;13.95;;;17.50;99.90;;;18.03;100.00;97914.53;5037312;27;130157;-73
2022/06/21 00:30:54;;;;;;;18.63;15.50;;;17.50;99.90;;;18.01;100.00;97905.94;5038492;27;129750;-74
2022/06/21 00:33:25;;;;;;;16.80;14.65;;;17.50;99.90;;;18.00;100.00;97904.34;5023983;27;118573;-76
2022/06/21 00:36:12;;;;;;;16.65;14.73;;;17.50;99.90;;;18.00;100.00;97896.13;5023798;27;118953;-76
2022/06/21 00:38:40;;;;;;;16.15;14.00;;;17.50;99.90;;;18.03;100.00;97890.63;5038563;27;130288;-73
2022/06/21 00:41:13;;;;;;;17.02;14.15;;;17.50;99.90;;;18.11;100.00;97894.13;5038385;27;129504;-75
2022/06/21 00:43:48;;;;;;;17.52;13.68;;;17.50;99.90;;;18.17;100.00;97889.78;5038829;27;119489;-74
2022/06/21 00:46:31;;;;;;;19.35;14.45;;;17.50;99.90;;;18.19;100.00;97884.66;5039226;27;119665;-75
2022/06/21 00:49:03;;;;;;;19.95;14.65;;;17.50;99.90;;;18.22;100.00;97883.84;5038433;27;129980;-74
2022/06/21 00:51:38;;;;;;;16.67;13.70;;;17.60;99.90;;;18.22;100.00;97881.09;5023499;27;128400;-75
2022/06/21 00:54:17;;;;;;;16.77;13.88;;;17.50;99.90;;;18.15;100.00;97878.41;5022369;27;121628;-77
2022/06/21 00:56:52;;;;;;;18.65;14.68;;;17.50;99.90;;;18.04;100.00;97883.19;5024062;27;121385;-76
2022/06/21 00:59:27;;;;;;;17.45;13.93;;;17.50;99.90;;;18.05;100.00;97879.25;5026754;27;129024;-74
2022/06/21 01:02:01;;;;;;;16.48;13.68;;;17.50;99.90;;;18.17;100.00;97878.00;5041843;27;129773;-75
2022/06/21 01:04:35;;;;;;;15.80;14.00;;;17.60;99.90;;;18.25;100.00;97866.56;5042464;27;119453;-75
2022/06/21 01:07:08;;;;;;;18.58;14.10;;;17.60;99.90;;;18.26;100.00;97857.16;5042837;27;119638;-76
2022/06/21 01:09:41;;;;;;;20.15;14.45;;;17.60;99.90;;;18.26;100.00;97867.34;5009997;27;129794;-75
2022/06/21 01:12:16;;;;;;;18.58;13.05;;;17.60;99.90;;;18.27;100.00;97857.94;5027144;27;129660;-75
2022/06/21 01:14:53;;;;;;;15.55;12.35;;;17.60;99.90;;;18.27;100.00;97849.69;5027591;27;119552;-77
2022/06/21 01:17:22;;;;;;;15.57;11.45;;;17.60;99.90;;;18.31;100.00;97843.00;5042741;27;119520;-76
2022/06/21 01:19:57;;;;;;;15.35;12.38;;;17.60;99.90;;;18.37;100.00;97831.56;5022625;27;130227;-76
2022/06/21 01:22:38;;;;;;;16.00;13.37;;;17.60;99.90;;;18.38;100.00;97824.91;5027460;27;128285;-75
2022/06/21 01:25:26;;;;;;;16.13;12.55;;;17.60;99.90;;;18.30;100.00;97807.72;5026920;27;119024;-74
2022/06/21 01:27:57;;;;;;;16.15;13.48;;;17.70;99.90;;;18.19;100.00;97796.81;5026812;27;118332;-73
2022/06/21 01:30:28;;;;;;;18.77;15.05;;;17.60;99.90;;;18.13;100.00;97792.94;5041719;27;129486;-77
2022/06/21 01:32:59;;;;;;;22.48;14.75;;;17.60;99.90;;;18.06;100.00;97787.47;5027071;27;129877;-79
2022/06/21 01:35:35;;;;;;;17.02;14.48;;;17.60;99.90;;;18.02;100.00;97781.25;5024833;27;120403;-77
2022/06/21 01:38:06;;;;;;;19.98;14.52;;;17.50;99.90;;;18.03;100.00;97788.28;5042451;27;119817;-76
2022/06/21 01:40:41;;;;;;;20.30;15.80;;;17.50;99.90;;;18.09;100.00;97786.69;5026386;27;128919;-76
2022/06/21 01:43:16;;;;;;;18.80;15.07;;;17.60;99.90;;;18.13;100.00;97781.94;5026556;27;128616;-76
2022/06/21 01:45:50;;;;;;;21.42;16.52;;;17.60;99.90;;;18.01;100.00;97785.94;5025450;27;120994;-76
2022/06/21 01:48:25;;;;;;;21.13;15.25;;;17.50;99.90;;;17.94;100.00;97775.81;5041662;27;121756;-77
2022/06/21 01:51:02;;;;;;;17.65;14.40;;;17.50;99.90;;;18.01;100.00;97779.69;5023094;27;130218;-77
2022/06/21 01:53:31;;;;;;;18.88;14.95;;;17.50;99.90;;;17.99;100.00;97782.06;5025796;27;129046;-75
2022/06/21 01:56:04;;;;;;;18.55;15.07;;;17.40;99.90;;;17.97;100.00;97771.50;5043223;27;120033;-74
2022/06/21 01:58:41;;;;;;;17.27;14.63;;;17.40;99.90;;;18.00;100.00;97767.13;5041238;27;119415;-76
2022/06/21 02:01:18;;;;;;;19.40;15.18;;;17.40;99.90;;;18.02;100.00;97759.31;5040715;27;130581;-75
2022/06/21 02:03:52;;;;;;;20.67;14.70;;;17.40;99.90;;;18.01;100.00;97763.22;5040959;27;129575;-74
2022/06/21 02:06:24;;;;;;;19.08;15.00;;;17.40;99.90;;;18.03;100.00;97760.84;5040963;27;119525;-75
2022/06/21 02:08:59;;;;;;;18.05;14.45;;;17.40;99.90;;;18.04;100.00;97756.94;5025379;27;119271;-74
2022/06/21 02:11:35;;;;;;;19.65;15.13;;;17.40;99.90;;;18.04;100.00;97752.19;5020898;27;130341;-74
2022/06/21 02:14:29;;;;;;;;;;;17.40;99.90;;;18.00;100.00;97753.41;5041039;27;130309;-75
2022/06/21 02:17:12;;;;;;;17.95;13.85;;;17.40;99.90;;;18.01;100.00;97757.72;5041010;27;119739;-73
2022/06/21 02:19:46;;;;;;;17.83;13.68;;;17.40;99.90;;;18.00;100.00;97756.97;5026305;27;118617;-74
2022/06/21 02:22:19;;;;;;;17.63;14.57;;;17.40;99.90;;;18.04;100.00;97756.94;5025794;27;129522;-78
2022/06/21 02:24:48;;;;;;;19.85;15.93;;;17.40;99.90;;;18.07;100.00;97745.91;5025567;27;129027;-78
2022/06/21 02:27:20;;;;;;;17.92;15.10;;;17.50;99.90;;;18.04;100.00;97746.72;5041157;27;119844;-76
2022/06/21 02:29:55;;;;;;;19.05;14.80;;;17.40;99.90;;;18.06;100.00;97743.56;5023182;27;119800;-82
2022/06/21 02:32:29;;;;;;;17.50;14.30;;;17.50;99.90;;;18.04;100.00;97740.47;5022219;27;130973;-74
2022/06/21 02:35:04;;;;;;;16.75;13.85;;;17.50;99.90;;;18.03;100.00;97733.41;5025346;27;128504;-78
2022/06/21 02:37:33;;;;;;;18.33;14.63;;;17.50;99.90;;;18.07;100.00;97734.16;5024508;27;121705;-76
2022/06/21 02:40:06;;;;;;;18.00;14.48;;;17.50;99.90;;;18.11;100.00;97734.91;5040930;27;122205;-77
2022/06/21 02:42:40;;;;;;;17.58;13.57;;;17.50;99.90;;;18.08;100.00;97731.00;5040536;27;130144;-77
2022/06/21 02:45:23;;;;;;;16.67;13.32;;;17.50;99.90;;;18.06;100.00;97725.16;5040196;27;130310;-74
2022/06/21 02:47:55;;;;;;;16.23;13.30;;;17.50;99.90;;;18.07;100.00;97712.97;5025477;27;118463;-73
2022/06/21 02:50:36;;;;;;;14.75;12.05;;;17.50;99.90;;;18.07;100.00;97718.47;5008418;27;119041;-75
2022/06/21 02:53:13;;;;;;;14.15;11.73;;;17.50;99.90;;;18.08;100.00;97702.78;5039926;27;130041;-75
2022/06/21 02:55:45;;;;;;;;;;;17.50;99.90;;;18.00;100.00;97696.59;5042239;27;129492;-73
2022/06/21 02:58:23;;;;;;;13.05;10.35;;;17.50;99.90;;;18.09;100.00;97683.16;5040521;27;119287;-73
2022/06/21 03:00:54;;;;;;;14.80;11.80;;;17.50;99.90;;;18.16;100.00;97687.81;5025172;27;119674;-71
2022/06/21 03:03:26;;;;;;;13.93;11.23;;;17.60;99.90;;;18.16;100.00;97676.81;5038390;27;129765;-74
2022/06/21 03:06:01;;;;;;;14.30;9.35;;;17.60;99.90;;;18.14;100.00;97673.72;5021516;27;130176;-73
2022/06/21 03:08:32;;;;;;;12.98;9.73;;;17.60;99.90;;;18.07;100.00;97662.78;5024858;27;119462;-72
2022/06/21 03:11:02;;;;;;;12.48;10.38;;;17.50;99.90;;;18.12;100.00;97667.84;5039907;27;119296;-73
2022/06/21 03:13:35;;;;;;;11.63;10.43;;;17.60;99.90;;;18.12;100.00;97654.91;5039269;27;129819;-72
2022/06/21 03:16:12;;;;;;;12.43;9.48;;;17.50;99.90;;;18.17;100.00;97656.44;5038884;27;129387;-73
2022/06/21 03:18:45;;;;;;;;;;;17.60;99.90;;;18.16;100.00;97648.59;5025468;27;119572;-71
2022/06/21 03:21:16;;;;;;;12.27;10.02;;;17.60;99.90;;;18.22;100.00;97631.28;5025170;27;118677;-75
2022/06/21 03:23:46;;;;;;;12.63;10.07;;;17.60;99.90;;;18.20;100.00;97633.66;5039412;27;131206;-72
2022/06/21 03:26:15;;;;;;;13.38;10.60;;;17.60;99.90;;;18.09;100.00;97643.94;5039848;27;129877;-76
2022/06/21 03:28:46;;;;;;;13.90;10.05;;;17.50;99.90;;;18.17;100.00;97641.91;5020591;27;122137;-75
2022/06/21 03:31:21;;;;;;;11.43;9.93;;;17.60;99.90;;;18.12;100.00;97643.13;5043036;27;121837;-76
2022/06/21 03:33:54;;;;;;;16.60;13.13;;;17.50;99.90;;;18.05;100.00;97640.47;5039288;27;130243;-77
2022/06/21 03:36:26;;;;;;;14.40;12.55;;;17.50;99.90;;;18.02;100.00;97633.06;5039082;27;129422;-74
2022/06/21 03:39:00;;;;;;;15.27;13.27;;;17.40;99.90;;;17.99;100.00;97634.63;5039570;27;119561;-75
2022/06/21 03:41:43;;;;;;;14.45;11.52;;;17.40;99.90;;;18.03;100.00;97634.59;5039479;27;119568;-76
2022/06/21 03:44:21;;;;;;;14.77;12.48;;;17.50;99.90;;;18.07;100.00;97635.34;5023852;27;130075;-74
2022/06/21 03:46:56;;;;;;;13.93;10.93;;;17.50;99.90;;;18.02;100.00;97630.31;5024362;27;128644;-77
2022/06/21 03:49:31;;;;;;;13.65;11.15;;;17.50;99.90;;;18.04;100.00;97630.69;5024921;27;119226;-76
2022/06/21 03:52:05;;;;;;;15.35;11.70;;;17.50;99.90;;;18.04;100.00;97631.44;5039971;27;119437;-76
2022/06/21 03:54:39;;;;;;;15.07;10.82;;;17.50;99.90;;;17.98;100.00;97626.81;5022531;27;128952;-75
2022/06/21 03:57:15;;;;;;;14.00;11.65;;;17.50;99.90;;;18.04;100.00;97628.69;5024123;27;129130;-77
2022/06/21 03:59:52;;;;;;;12.68;11.27;;;17.50;99.90;;;18.05;100.00;97624.00;5039344;27;121382;-74
2022/06/21 04:02:31;;;;;;;15.32;12.18;;;17.50;99.90;;;18.08;100.00;97612.22;5043443;27;103529;-77
2022/06/21 04:05:08;;;;;;;14.13;11.85;;;17.50;99.90;;;18.09;100.00;97617.28;5038769;27;129661;-77
2022/06/21 04:07:44;;;;;;;11.82;10.63;;;17.50;99.90;;;18.13;100.00;97600.78;5040949;27;129090;-79
2022/06/21 04:10:21;;;;;;;13.20;10.80;;;17.60;99.90;;;18.16;100.00;97594.47;5039141;27;119716;-77
2022/06/21 04:12:55;;;;;;;11.93;10.68;;;17.60;99.90;;;18.25;100.00;97586.53;5040136;27;119509;-77
2022/06/21 04:15:30;;;;;;;12.85;10.25;;;17.60;99.90;;;18.26;100.00;97592.78;5007452;27;130142;-77
2022/06/21 04:18:12;;;;;;;12.18;10.88;;;17.60;99.90;;;18.32;100.00;97586.47;5007088;27;128366;-76
2022/06/21 04:20:50;;;;;;;13.10;10.15;;;17.70;99.90;;;18.25;100.00;97597.53;5037935;27;122052;-75
2022/06/21 04:23:27;;;;;;;16.73;11.02;;;17.60;99.90;;;18.25;100.00;97597.53;5024165;27;122004;-78
2022/06/21 04:26:03;;;;;;;11.65;10.15;;;17.60;99.90;;;18.23;100.00;97588.91;5038892;27;130840;-77
2022/06/21 04:28:38;;;;;;;13.47;10.00;;;17.60;99.90;;;18.23;100.00;97588.91;5023849;27;128696;-81
2022/06/21 04:31:12;;;;;;;13.97;10.97;;;17.60;99.90;;;18.23;100.00;97594.41;5038851;27;119713;-76
2022/06/21 04:33:47;;;;;;;13.30;9.75;;;17.60;99.90;;;18.25;100.00;97596.75;5022810;27;118583;-77
2022/06/21 04:36:22;;;;;;;11.75;9.85;;;17.60;99.90;;;18.38;100.00;97588.75;5020477;27;130215;-77
2022/06/21 04:39:01;;;;;;;15.55;10.48;;;17.70;99.90;;;18.47;100.00;97586.28;5023769;27;128661;-78
2022/06/21 04:41:38;;;;;;;14.25;10.07;;;17.70;99.90;;;18.39;100.00;97590.31;5039728;27;118914;-75
2022/06/21 04:44:12;;;;;;;12.35;10.05;;;17.60;99.90;;;18.28;100.00;97591.22;5014022;27;118638;-77
2022/06/21 04:46:47;;;;;;;12.13;9.98;;;17.70;99.90;;;18.31;100.00;97584.91;5022316;27;129675;-74
2022/06/21 04:49:22;;;;;;;12.85;11.20;;;17.70;99.90;;;18.30;100.00;97575.09;5038012;27;130348;-75
2022/06/21 04:51:58;;;;;;;13.25;10.05;;;17.60;99.90;;;18.26;100.00;97581.81;5023517;27;118872;-78
2022/06/21 04:54:30;;;;;;;12.03;9.20;;;17.60;99.90;;;18.30;100.00;97566.09;5038655;27;119947;-74
2022/06/21 04:57:07;;;;;;;11.13;9.30;;;17.60;99.90;;;18.39;100.00;97562.88;5023176;27;129269;-75
2022/06/21 04:59:41;;;;;;;12.68;10.25;;;17.60;99.90;;;18.46;100.00;97560.00;5006358;27;128661;-76
2022/06/21 05:02:19;;;;;;;13.13;10.77;;;17.70;99.90;;;18.53;100.00;97556.38;5038466;27;120423;-74
2022/06/21 05:04:54;;;;;;;13.07;10.05;;;17.80;99.90;;;18.52;100.00;97550.13;5039001;27;119349;-77
2022/06/21 05:07:29;;;;;;;15.55;10.63;;;17.80;99.90;;;18.53;100.00;97546.19;5037927;27;130589;-75
2022/06/21 05:09:58;;;;;;;13.35;10.30;;;17.70;99.90;;;18.50;100.00;97547.78;5038322;27;129590;-74
2022/06/21 05:12:33;;;;;;;13.90;10.77;;;17.80;99.90;;;18.57;100.00;97540.66;5037396;27;121901;-75
2022/06/21 05:15:07;;;;;;;17.35;12.23;;;17.80;99.90;;;18.63;100.00;97545.25;5038375;27;122615;-76
2022/06/21 05:17:41;;;;;;;17.10;12.60;;;17.90;99.90;;;18.64;100.00;97549.56;5038071;27;129902;-75
2022/06/21 05:20:19;;;;;;;15.88;12.65;;;17.80;99.90;;;18.72;100.00;97535.75;5038068;27;129516;-75
2022/06/21 05:22:52;;;;;;;14.48;12.95;;;17.90;99.90;;;18.88;100.00;97526.91;5038295;27;119729;-76
2022/06/21 05:25:32;;;;;;;16.15;12.98;;;17.90;99.90;;;18.91;100.00;97523.34;5023266;27;118952;-76
2022/06/21 05:28:06;;;;;;;16.75;13.57;;;18.00;99.90;;;18.98;100.00;97518.50;5037881;27;130055;-75
2022/06/21 05:30:42;;;;;;;14.98;11.93;;;18.00;99.90;;;19.08;100.00;97518.75;5023191;27;128149;-75
2022/06/21 05:33:18;;;;;;;14.05;11.45;;;18.10;99.90;;;19.12;100.00;97522.22;5038170;27;119546;-75
2022/06/21 05:35:49;;;;;;;14.45;12.20;;;18.10;99.90;;;19.11;100.00;97507.72;5023122;27;119180;-76
2022/06/21 05:38:22;;;;;;;15.07;11.13;;;18.00;99.90;;;19.03;100.00;97507.03;5022042;27;129475;-78
2022/06/21 05:40:57;;;;;;;15.00;11.95;;;18.00;99.90;;;19.11;100.00;97506.94;5034752;27;129543;-75
2022/06/21 05:43:33;;;;;;;13.63;12.02;;;18.10;99.90;;;19.18;100.00;97506.81;5038210;27;119861;-76
2022/06/21 05:46:04;;;;;;;;;;;18.10;99.90;;;19.11;100.00;97506.94;5041780;27;120356;-75
2022/06/21 05:48:37;;;;;;;14.35;12.35;;;18.10;99.90;;;19.09;100.00;97498.31;5041063;27;130645;-76
2022/06/21 05:51:15;;;;;;;15.27;13.68;;;18.00;99.90;;;19.06;100.00;97501.88;5040889;27;130231;-76
2022/06/21 05:53:50;;;;;;;14.18;12.50;;;18.10;99.90;;;19.04;100.00;97492.09;5026134;27;119894;-77
2022/06/21 05:56:23;;;;;;;16.83;13.90;;;18.10;99.90;;;19.07;100.00;97489.72;5026127;27;118773;-76
2022/06/21 05:58:57;;;;;;;17.80;14.43;;;18.10;99.90;;;19.02;100.00;97513.72;5040943;27;130988;-75
2022/06/21 06:01:33;;;;;;;17.23;14.38;;;18.10;99.90;;;18.93;100.00;97512.69;5025863;27;128594;-77
2022/06/21 06:04:09;;;;;;;18.23;14.88;;;18.00;99.90;;;18.87;100.00;97498.66;5024393;27;121722;-76
2022/06/21 06:06:43;;;;;;;23.00;16.65;;;18.00;99.90;;;18.86;100.00;97502.59;5041104;27;122643;-74
2022/06/21 06:09:19;;;;;;;20.63;17.83;;;18.00;99.90;;;18.91;100.00;97493.88;5023208;27;130418;-77
2022/06/21 06:12:00;;;;;;;20.08;14.95;;;18.10;99.90;;;19.04;100.00;97499.56;5026079;27;129725;-77
2022/06/21 06:14:38;;;;;;;18.10;15.40;;;18.10;99.90;;;19.18;100.00;97484.81;5041198;27;119983;-76
2022/06/21 06:17:19;;;;;;;17.08;14.65;;;18.30;99.90;;;19.61;100.00;97478.56;5026197;27;119050;-75
2022/06/21 06:19:57;;;;;;;18.88;15.25;;;18.60;99.90;;;19.68;100.00;97480.41;5040540;27;130767;-75
2022/06/21 06:22:38;;;;;;;19.42;13.88;;;18.50;99.90;;;19.85;100.00;97464.78;5025966;27;128782;-75
2022/06/21 06:25:16;;;;;;;17.45;13.45;;;18.70;99.90;;;20.02;100.00;97471.91;5040706;27;119786;-75
2022/06/21 06:27:54;;;;;;;17.45;14.60;;;18.70;99.90;;;20.03;100.00;97478.97;5026802;27;118920;-79
2022/06/21 06:30:32;;;;;;;17.65;14.15;;;18.70;99.90;;;20.01;100.00;97467.63;5038901;27;130299;-77
2022/06/21 06:33:15;;;;;;;15.50;13.70;;;18.80;99.90;;;19.93;100.00;97455.22;5028043;27;129197;-74
2022/06/21 06:35:46;;;;;;;14.18;12.40;;;18.70;99.90;;;19.88;100.00;97469.44;5012199;27;119721;-77
2022/06/21 06:38:18;;;;;;;20.10;14.88;;;18.60;99.90;;;19.84;100.00;97457.75;5045868;27;119125;-77
2022/06/21 06:40:52;;;;;;;18.25;14.02;;;18.70;99.90;;;19.88;100.00;97452.94;5045422;27;130331;-76
2022/06/21 06:43:28;;;;;;;18.35;13.80;;;18.70;99.90;;;20.13;100.00;97452.41;5043667;27;129553;-79
2022/06/21 06:45:58;;;;;;;15.77;13.85;;;18.90;99.90;;;20.38;100.00;97462.94;5009153;27;118627;-80
2022/06/21 06:48:37;;;;;;;16.60;13.38;;;19.00;99.90;;;20.37;100.00;97455.84;5009502;27;119471;-77
2022/06/21 06:51:32;;;;;;;17.75;13.55;;;19.00;99.90;;;20.50;100.00;97457.94;5040379;27;130635;-77
2022/06/21 06:54:04;;;;;;;15.77;12.93;;;19.10;99.90;;;20.77;100.00;97444.75;5025403;27;129931;-77
2022/06/21 06:56:55;;;;;;;16.27;12.45;;;19.40;99.90;;;21.07;100.00;97445.59;5037867;27;122491;-76
2022/06/21 06:59:26;;;;;;;17.83;12.95;;;19.60;99.90;;;21.44;100.00;97451.78;5043777;27;123311;-77
2022/06/21 07:02:00;;;;;;;17.70;13.27;;;19.80;99.90;;;21.84;100.00;97451.50;5024985;27;129116;-77
2022/06/21 07:04:36;;;;;;;14.63;12.80;;;20.10;99.90;;;22.00;100.00;97452.66;5024998;27;128812;-75
2022/06/21 07:07:15;;;;;;;26.30;14.63;;;20.20;99.90;;;21.85;100.00;97458.56;5040121;27;119520;-78
2022/06/21 07:09:49;;;;;;;67.38;20.35;;;20.00;84.00;;;21.97;100.00;97448.00;5040106;27;119976;-75
2022/06/21 07:12:23;;;;;;;25.38;13.68;;;20.00;51.10;;;22.26;98.93;97448.72;5038747;27;129811;-75
2022/06/21 07:14:53;;;;;;;22.80;13.93;;;20.30;1.00;;;22.40;96.73;97447.53;5040743;27;129778;-77
2022/06/21 07:17:31;;;;;;;20.45;13.52;;;20.20;1.00;;;22.49;94.38;97438.59;5040525;27;120124;-80
2022/06/21 07:20:00;;;;;;;18.25;11.82;;;20.10;1.00;;;22.71;94.82;97435.94;5040213;27;119632;-76
2022/06/21 07:22:34;;;;;;;16.55;12.15;;;20.30;1.00;;;23.08;92.84;97438.34;5038749;27;131576;-78
2022/06/21 07:25:15;;;;;;;15.00;11.45;;;20.60;1.00;;;23.33;91.48;97438.28;5024421;27;128524;-78
2022/06/21 07:27:49;;;;;;;13.63;11.05;;;20.90;1.00;;;23.28;89.11;97446.38;5032336;27;119541;-76
2022/06/21 07:30:21;;;;;;;14.30;9.60;;;20.70;1.00;;;23.35;89.44;97440.59;5024809;27;118607;-74
2022/06/21 07:32:55;;;;;;;17.08;11.05;;;20.90;1.00;;;23.53;87.27;97445.53;5019641;27;129888;-76
2022/06/21 07:35:32;;;;;;;17.92;9.75;;;21.00;1.00;;;23.52;88.99;97436.44;5019299;28;130005;-77
2022/06/21 07:38:08;;;;;;;27.70;11.73;;;21.20;1.00;;;23.40;88.18;97436.50;5019656;28;119173;-75
2022/06/21 07:40:41;;;;;;;;;;;20.90;1.00;;;23.23;86.77;97438.66;5020572;27;119606;-75
2022/06/21 07:43:16;;;;;;;51.22;13.50;;;20.70;1.00;;;23.26;87.77;97433.00;5023165;27;130078;-79
2022/06/21 07:45:51;;;;;;;86.40;18.55;;;20.80;1.00;;;22.74;87.95;97442.59;5018853;27;131262;-74
2022/06/21 07:48:25;;;;;;;16.83;8.63;;;20.30;1.00;;;21.96;91.12;97447.22;5002632;28;120878;-75
2022/06/21 07:51:00;;;;;;;10.98;5.47;;;19.60;1.00;;;21.14;93.11;97450.94;5004732;28;120866;-77
2022/06/21 07:53:33;;;;;;;6.50;4.35;;;19.10;1.00;;;20.86;94.36;97454.41;5022411;27;130082;-77
2022/06/21 07:56:11;;;;;;;8.70;5.00;;;19.00;1.00;;;20.82;95.29;97447.00;5021438;28;129653;-76
2022/06/21 07:58:45;;;;;;;8.57;5.00;;;19.00;1.00;;;21.37;94.17;97443.66;5019878;28;119514;-80
2022/06/21 08:07:06;;;;;;;7.22;4.18;;;19.60;1.00;;;21.30;94.68;97449.38;5019412;28;129855;-78
2022/06/21 08:09:43;;;;;;;8.20;3.80;;;19.40;1.00;;;21.11;93.35;97448.28;5019392;28;119807;-76
2022/06/21 08:12:15;;;;;;;5.88;3.60;;;19.30;1.00;;;21.10;93.09;97446.72;5004389;28;119917;-76
2022/06/21 08:14:44;;;;;;;5.70;2.83;;;19.20;1.00;;;20.94;92.94;97453.00;5017757;28;129912;-75
2022/06/21 08:17:28;;;;;;;7.15;3.33;;;19.20;1.00;;;20.90;93.84;97463.38;5018935;28;129800;-79
2022/06/21 08:20:02;;;;;;;6.93;3.05;;;19.00;1.00;;;;;;5004309;28;119454;-76
2022/06/21 08:22:37;;;;;;;11.07;3.45;;;19.10;1.00;;;21.33;92.56;97446.53;5019214;28;119557;-76
2022/06/21 08:25:19;;;;;;;8.93;3.72;;;19.10;1.00;;;21.51;92.47;97451.59;5018990;28;129725;-78
2022/06/21 08:27:57;;;;;;;5.18;3.22;;;19.40;1.00;;;21.45;90.41;97447.78;5018534;28;129594;-76
2022/06/21 08:30:34;;;;;;;7.95;3.65;;;19.30;1.00;;;21.49;91.05;97448.50;5018728;28;120209;-74
2022/06/21 08:33:10;;;;;;;5.97;3.20;;;19.40;1.00;;;21.34;90.04;97452.81;5019213;28;119287;-74
2022/06/21 08:35:43;;;;;;;6.05;3.28;;;19.10;1.00;;;20.86;93.56;97462.66;5017014;28;129738;-70
2022/06/21 08:38:23;;;;;;;5.28;3.55;;;18.90;1.00;;;20.47;92.67;97454.06;5037042;27;129220;-71
2022/06/21 08:41:55;;;;;;;6.03;4.00;;;18.60;1.00;;;20.35;94.58;97468.50;5017330;28;121803;-73
2022/06/21 08:49:06;;;;;;;7.43;3.30;;;18.20;1.00;;;19.76;93.69;97462.59;5010535;27;129542;-75
2022/06/21 08:52:24;;;;;;;6.03;3.13;;;18.10;1.00;;;20.20;91.65;97473.53;4997716;27;129547;-74
2022/06/21 08:55:09;;;;;;;5.05;3.50;;;18.30;1.00;;;20.77;90.30;97466.81;5020503;27;120426;-76
2022/06/21 08:57:48;;;;;;;8.48;3.40;;;18.60;1.00;;;21.08;89.63;97480.22;5037032;27;119653;-74
2022/06/21 09:00:33;;;;;;;5.85;3.90;;;19.10;1.00;;;20.91;87.00;97481.44;5038198;27;130387;-73
2022/06/21 09:03:19;;;;;;;4.25;3.15;;;18.70;1.00;;;20.55;89.44;97473.97;5038278;27;129856;-73
2022/06/21 09:06:10;;;;;;;5.82;3.00;;;18.40;1.00;;;20.23;89.68;97478.97;5016873;27;119774;-71
2022/06/21 09:09:10;;;;;;;5.57;3.00;;;18.20;1.00;;;19.74;91.06;97471.25;5018111;28;120153;-72
2022/06/21 09:11:51;;;;;;;8.43;3.15;;;18.00;1.00;;;20.34;88.13;97476.00;5001774;28;128593;-72
2022/06/21 09:14:55;;;;;;;4.55;3.00;;;18.50;1.00;;;20.77;85.58;97477.81;5017905;28;129247;-69
2022/06/21 09:17:36;;;;;;;3.60;2.70;;;18.60;1.00;;;20.55;84.99;97483.00;5018002;28;119723;-74
2022/06/21 09:20:20;;;;;;;3.63;2.60;;;18.50;1.00;;;20.68;85.19;97480.41;5020927;27;119598;-69
2022/06/21 09:23:07;;;;;;;4.47;2.50;;;18.60;1.00;;;20.83;81.85;97487.13;5021355;28;130359;-72
2022/06/21 09:25:50;;;;;;;2.78;2.25;;;18.40;1.00;;;21.08;79.75;97491.25;5038435;27;129643;-71
2022/06/21 09:28:32;;;;;;;2.50;2.17;;;18.50;1.00;;;21.06;78.85;97485.41;5023101;28;119614;-70
2022/06/21 09:31:06;;;;;;;7.00;2.30;;;18.60;1.00;;;21.49;76.31;97487.13;5041245;27;119906;-73
2022/06/21 09:33:47;;;;;;;3.05;2.10;;;18.90;1.00;;;21.23;76.86;97486.19;5022366;28;129793;-73
2022/06/21 09:36:28;;;;;;;3.63;2.47;;;18.40;1.00;;;20.79;81.04;97491.94;5021852;28;130213;-75
2022/06/21 09:39:14;;;;;;;3.55;2.10;;;18.40;1.00;;;20.34;80.86;97503.53;5020423;28;123050;-72
2022/06/21 09:41:56;;;;;;;4.22;2.40;;;18.10;1.00;;;19.90;83.67;97505.59;5006467;28;121736;-71
2022/06/21 09:44:35;;;;;;;8.40;2.72;;;17.90;1.00;;;19.62;85.47;97502.16;5006203;28;129638;-71
2022/06/21 09:47:13;;;;;;;4.05;2.17;;;17.60;1.00;;;19.49;86.05;97504.72;5020898;28;129734;-72
2022/06/21 09:49:50;;;;;;;2.80;2.10;;;17.40;1.00;;;19.17;83.91;97513.53;5021375;28;120557;-72
2022/06/21 09:52:34;;;;;;;2.92;2.10;;;17.20;1.00;;;19.24;85.31;97521.63;5021391;28;120084;-70
2022/06/21 09:55:16;;;;;;;2.92;1.92;;;17.50;1.00;;;19.58;82.14;97515.19;5005937;28;128922;-68
2022/06/21 09:57:55;;;;;;;2.67;1.70;;;17.60;1.00;;;19.88;81.62;97513.47;5021129;28;130552;-73
2022/06/21 10:00:38;;;;;;;4.15;1.77;;;17.80;1.00;;;20.19;79.17;97510.53;5022448;28;119712;-72
2022/06/21 10:03:26;;;;;;;2.88;1.65;;;17.80;1.00;;;20.50;78.78;97507.53;5022650;28;119745;-70
2022/06/21 10:06:05;;;;;;;3.35;1.75;;;18.10;1.00;;;20.38;78.36;97506.19;5020979;28;130369;-73
2022/06/21 10:09:02;;;;;;;3.67;1.40;;;18.00;1.00;;;20.14;79.58;97497.25;5021568;28;129371;-70
2022/06/21 10:11:42;;;;;;;4.73;1.67;;;17.80;1.00;;;20.70;77.35;97511.06;5020894;28;119988;-73
2022/06/21 10:14:31;;;;;;;4.15;1.20;;;18.30;1.00;;;20.71;76.12;97496.06;5020867;28;119631;-70
2022/06/21 10:17:47;;;;;;;7.07;1.50;;;18.10;1.00;;;20.22;79.58;97499.44;5020454;28;129816;-70
2022/06/21 10:20:34;;;;;;;2.65;1.20;;;18.00;1.00;;;19.19;85.95;97498.13;5002562;28;128484;-72
2022/06/21 10:23:28;;;;;;;7.43;1.73;;;16.90;1.00;;;18.13;93.18;97523.94;5020629;28;121593;-69
2022/06/21 10:26:19;;;;;;;2.28;1.40;;;16.00;1.00;;;17.60;98.34;97537.00;5021377;28;119996;-71
2022/06/21 10:29:16;;;;;;;5.18;1.85;;;15.80;1.00;;;17.64;97.87;97531.47;5020307;28;129950;-74
2022/06/21 10:31:58;;;;;;;2.70;1.70;;;15.80;1.00;;;17.77;93.77;97536.03;5019040;28;129992;-72
2022/06/21 10:35:15;;;;;;;6.88;1.77;;;15.90;1.00;;;17.44;94.01;97540.28;5019228;28;122569;-71
2022/06/21 10:38:04;;;;;;;2.47;1.40;;;15.90;1.00;;;17.15;93.00;97535.00;5020288;28;122862;-71
2022/06/21 10:41:03;;;;;;;3.20;1.80;;;15.70;1.00;;;17.09;94.22;97546.81;5020340;28;129995;-70
2022/06/21 10:44:10;;;;;;;4.03;1.75;;;15.70;1.00;;;17.11;92.28;97550.72;5020140;28;129956;-70
2022/06/21 10:46:44;;;;;;;4.03;1.60;;;15.70;1.00;;;17.40;88.60;97556.72;5020399;28;119749;-70
2022/06/21 10:49:48;;;;;;;2.85;1.50;;;15.60;1.00;;;17.83;87.00;97571.28;5020144;28;119592;-67
2022/06/21 10:52:49;;;;;;;10.18;2.53;;;16.00;1.00;;;17.72;84.51;97576.88;5002136;28;130014;-72
2022/06/21 10:55:50;;;;;;;2.28;1.58;;;15.90;1.00;;;18.03;83.14;97565.97;5021240;28;130026;-71